sensor_id;sensor_type;location;lat;lon;timestamp;P1;durP1;ratioP1;P2;durP2;ratioP2
19919;SDS011;10122;50.074;19.920;2024-02-14T00:01:05;25.70;;;15.02;;
19919;SDS011;10122;50.074;19.920;2024-02-14T00:03:34;26.83;;;16.05;;
19919;SDS011;10122;50.074;19.920;2024-02-14T00:05:59;30.85;;;15.85;;
19919;SDS011;10122;50.074;19.920;2024-02-14T00:08:25;31.83;;;16.70;;
19919;SDS011;10122;50.074;19.920;2024-02-14T00:10:51;33.55;;;15.65;;
19919;SDS011;10122;50.074;19.920;2024-02-14T00:13:17;27.15;;;15.77;;
19919;SDS011;10122;50.074;19.920;2024-02-14T00:15:45;31.42;;;16.73;;
19919;SDS011;10122;50.074;19.920;2024-02-14T00:18:31;30.85;;;16.77;;
19919;SDS011;10122;50.074;19.920;2024-02-14T00:20:57;29.77;;;16.67;;
19919;SDS011;10122;50.074;19.920;2024-02-14T00:23:23;28.70;;;16.38;;
19919;SDS011;10122;50.074;19.920;2024-02-14T00:25:49;29.33;;;16.58;;
19919;SDS011;10122;50.074;19.920;2024-02-14T00:28:15;29.75;;;16.58;;
19919;SDS011;10122;50.074;19.920;2024-02-14T00:30:40;28.42;;;16.33;;
19919;SDS011;10122;50.074;19.920;2024-02-14T00:33:06;32.90;;;17.02;;
19919;SDS011;10122;50.074;19.920;2024-02-14T00:35:32;27.55;;;15.73;;
19919;SDS011;10122;50.074;19.920;2024-02-14T00:37:57;29.00;;;16.40;;
19919;SDS011;10122;50.074;19.920;2024-02-14T00:40:23;28.10;;;16.98;;
19919;SDS011;10122;50.074;19.920;2024-02-14T00:42:49;28.60;;;15.95;;
19919;SDS011;10122;50.074;19.920;2024-02-14T00:45:14;33.97;;;16.70;;
19919;SDS011;10122;50.074;19.920;2024-02-14T00:47:40;33.63;;;16.80;;
19919;SDS011;10122;50.074;19.920;2024-02-14T00:50:06;30.15;;;17.50;;
19919;SDS011;10122;50.074;19.920;2024-02-14T00:52:32;30.73;;;16.77;;
19919;SDS011;10122;50.074;19.920;2024-02-14T00:54:57;30.48;;;16.27;;
19919;SDS011;10122;50.074;19.920;2024-02-14T00:57:23;33.35;;;17.58;;
19919;SDS011;10122;50.074;19.920;2024-02-14T00:59:52;30.48;;;17.38;;
19919;SDS011;10122;50.074;19.920;2024-02-14T01:02:18;33.58;;;17.80;;
19919;SDS011;10122;50.074;19.920;2024-02-14T01:04:44;27.60;;;16.25;;
19919;SDS011;10122;50.074;19.920;2024-02-14T01:07:09;32.58;;;18.05;;
19919;SDS011;10122;50.074;19.920;2024-02-14T01:09:35;30.55;;;16.85;;
19919;SDS011;10122;50.074;19.920;2024-02-14T01:12:01;31.25;;;18.40;;
19919;SDS011;10122;50.074;19.920;2024-02-14T01:14:27;26.95;;;16.75;;
19919;SDS011;10122;50.074;19.920;2024-02-14T01:16:53;31.15;;;18.42;;
19919;SDS011;10122;50.074;19.920;2024-02-14T01:19:22;37.95;;;19.05;;
19919;SDS011;10122;50.074;19.920;2024-02-14T01:21:49;34.10;;;17.65;;
19919;SDS011;10122;50.074;19.920;2024-02-14T01:24:15;34.58;;;17.85;;
19919;SDS011;10122;50.074;19.920;2024-02-14T01:26:41;33.85;;;17.63;;
19919;SDS011;10122;50.074;19.920;2024-02-14T01:29:07;32.00;;;18.80;;
19919;SDS011;10122;50.074;19.920;2024-02-14T01:31:33;34.15;;;18.25;;
19919;SDS011;10122;50.074;19.920;2024-02-14T01:33:59;35.65;;;19.10;;
19919;SDS011;10122;50.074;19.920;2024-02-14T01:36:27;30.10;;;17.38;;
19919;SDS011;10122;50.074;19.920;2024-02-14T01:38:56;35.67;;;18.80;;
19919;SDS011;10122;50.074;19.920;2024-02-14T01:41:21;36.35;;;18.20;;
19919;SDS011;10122;50.074;19.920;2024-02-14T01:43:47;35.63;;;18.23;;
19919;SDS011;10122;50.074;19.920;2024-02-14T01:46:13;39.70;;;20.00;;
19919;SDS011;10122;50.074;19.920;2024-02-14T01:48:39;33.67;;;18.48;;
19919;SDS011;10122;50.074;19.920;2024-02-14T01:51:06;34.65;;;18.77;;
19919;SDS011;10122;50.074;19.920;2024-02-14T01:53:36;41.15;;;19.35;;
19919;SDS011;10122;50.074;19.920;2024-02-14T01:56:03;39.28;;;20.02;;
19919;SDS011;10122;50.074;19.920;2024-02-14T01:58:30;38.10;;;19.52;;
19919;SDS011;10122;50.074;19.920;2024-02-14T02:00:57;40.70;;;20.42;;
19919;SDS011;10122;50.074;19.920;2024-02-14T02:03:24;32.42;;;19.27;;
19919;SDS011;10122;50.074;19.920;2024-02-14T02:05:51;38.70;;;20.38;;
19919;SDS011;10122;50.074;19.920;2024-02-14T02:08:18;41.28;;;19.75;;
19919;SDS011;10122;50.074;19.920;2024-02-14T02:10:44;32.78;;;18.63;;
19919;SDS011;10122;50.074;19.920;2024-02-14T02:13:10;40.92;;;19.13;;
19919;SDS011;10122;50.074;19.920;2024-02-14T02:15:36;38.92;;;19.88;;
19919;SDS011;10122;50.074;19.920;2024-02-14T02:18:03;40.38;;;19.80;;
19919;SDS011;10122;50.074;19.920;2024-02-14T02:20:31;38.70;;;20.40;;
19919;SDS011;10122;50.074;19.920;2024-02-14T02:22:58;38.42;;;19.50;;
19919;SDS011;10122;50.074;19.920;2024-02-14T02:25:24;37.78;;;19.30;;
19919;SDS011;10122;50.074;19.920;2024-02-14T02:27:49;37.08;;;19.98;;
19919;SDS011;10122;50.074;19.920;2024-02-14T02:30:15;39.88;;;19.92;;
19919;SDS011;10122;50.074;19.920;2024-02-14T02:32:42;35.85;;;19.00;;
19919;SDS011;10122;50.074;19.920;2024-02-14T02:35:08;38.35;;;20.63;;
19919;SDS011;10122;50.074;19.920;2024-02-14T02:37:34;34.90;;;19.27;;
19919;SDS011;10122;50.074;19.920;2024-02-14T02:40:00;37.58;;;19.65;;
19919;SDS011;10122;50.074;19.920;2024-02-14T02:42:26;39.78;;;20.52;;
19919;SDS011;10122;50.074;19.920;2024-02-14T02:44:52;39.28;;;20.42;;
19919;SDS011;10122;50.074;19.920;2024-02-14T02:47:18;39.92;;;21.27;;
19919;SDS011;10122;50.074;19.920;2024-02-14T02:49:44;43.70;;;20.85;;
19919;SDS011;10122;50.074;19.920;2024-02-14T02:52:10;35.10;;;18.95;;
19919;SDS011;10122;50.074;19.920;2024-02-14T02:54:36;39.10;;;19.75;;
19919;SDS011;10122;50.074;19.920;2024-02-14T02:57:05;39.65;;;18.95;;
19919;SDS011;10122;50.074;19.920;2024-02-14T02:59:32;38.70;;;20.42;;
19919;SDS011;10122;50.074;19.920;2024-02-14T03:01:58;40.03;;;19.45;;
19919;SDS011;10122;50.074;19.920;2024-02-14T03:04:24;37.95;;;20.02;;
19919;SDS011;10122;50.074;19.920;2024-02-14T03:06:50;37.10;;;19.05;;
19919;SDS011;10122;50.074;19.920;2024-02-14T03:09:15;40.80;;;19.95;;
19919;SDS011;10122;50.074;19.920;2024-02-14T03:11:45;38.35;;;19.42;;
19919;SDS011;10122;50.074;19.920;2024-02-14T03:14:12;38.17;;;19.08;;
19919;SDS011;10122;50.074;19.920;2024-02-14T03:16:38;42.42;;;20.95;;
19919;SDS011;10122;50.074;19.920;2024-02-14T03:19:04;39.63;;;19.33;;
19919;SDS011;10122;50.074;19.920;2024-02-14T03:21:30;41.47;;;20.50;;
19919;SDS011;10122;50.074;19.920;2024-02-14T03:24:03;36.42;;;19.00;;
19919;SDS011;10122;50.074;19.920;2024-02-14T03:26:30;41.58;;;19.95;;
19919;SDS011;10122;50.074;19.920;2024-02-14T03:29:00;35.47;;;19.02;;
19919;SDS011;10122;50.074;19.920;2024-02-14T03:31:26;38.83;;;19.20;;
19919;SDS011;10122;50.074;19.920;2024-02-14T03:33:52;34.70;;;19.42;;
19919;SDS011;10122;50.074;19.920;2024-02-14T03:36:19;41.25;;;18.90;;
19919;SDS011;10122;50.074;19.920;2024-02-14T03:38:44;35.80;;;19.15;;
19919;SDS011;10122;50.074;19.920;2024-02-14T03:41:11;39.30;;;19.42;;
19919;SDS011;10122;50.074;19.920;2024-02-14T03:43:38;35.30;;;19.15;;
19919;SDS011;10122;50.074;19.920;2024-02-14T03:46:04;39.00;;;19.92;;
19919;SDS011;10122;50.074;19.920;2024-02-14T03:48:30;40.90;;;19.45;;
19919;SDS011;10122;50.074;19.920;2024-02-14T03:50:56;40.42;;;21.08;;
19919;SDS011;10122;50.074;19.920;2024-02-14T03:53:22;42.72;;;20.67;;
19919;SDS011;10122;50.074;19.920;2024-02-14T03:55:48;41.67;;;21.33;;
19919;SDS011;10122;50.074;19.920;2024-02-14T03:58:14;42.78;;;19.60;;
19919;SDS011;10122;50.074;19.920;2024-02-14T04:00:47;36.15;;;19.40;;
19919;SDS011;10122;50.074;19.920;2024-02-14T04:03:15;37.78;;;19.95;;
19919;SDS011;10122;50.074;19.920;2024-02-14T04:05:41;35.92;;;19.67;;
19919;SDS011;10122;50.074;19.920;2024-02-14T04:08:07;40.45;;;20.30;;
19919;SDS011;10122;50.074;19.920;2024-02-14T04:10:38;44.17;;;20.60;;
19919;SDS011;10122;50.074;19.920;2024-02-14T04:13:04;45.60;;;21.00;;
19919;SDS011;10122;50.074;19.920;2024-02-14T04:15:33;47.03;;;21.55;;
19919;SDS011;10122;50.074;19.920;2024-02-14T04:17:59;44.60;;;22.13;;
19919;SDS011;10122;50.074;19.920;2024-02-14T04:20:25;44.03;;;21.75;;
19919;SDS011;10122;50.074;19.920;2024-02-14T04:22:51;37.05;;;20.35;;
19919;SDS011;10122;50.074;19.920;2024-02-14T04:25:16;36.30;;;20.75;;
19919;SDS011;10122;50.074;19.920;2024-02-14T04:27:43;48.92;;;21.98;;
19919;SDS011;10122;50.074;19.920;2024-02-14T04:30:09;38.50;;;20.23;;
19919;SDS011;10122;50.074;19.920;2024-02-14T04:32:35;43.38;;;22.27;;
19919;SDS011;10122;50.074;19.920;2024-02-14T04:35:01;40.83;;;21.52;;
19919;SDS011;10122;50.074;19.920;2024-02-14T04:37:26;42.67;;;21.58;;
19919;SDS011;10122;50.074;19.920;2024-02-14T04:39:52;37.75;;;20.08;;
19919;SDS011;10122;50.074;19.920;2024-02-14T04:42:18;44.92;;;22.55;;
19919;SDS011;10122;50.074;19.920;2024-02-14T04:44:43;45.58;;;21.42;;
19919;SDS011;10122;50.074;19.920;2024-02-14T04:47:09;42.63;;;21.40;;
19919;SDS011;10122;50.074;19.920;2024-02-14T04:49:35;51.03;;;22.27;;
19919;SDS011;10122;50.074;19.920;2024-02-14T04:52:01;45.65;;;22.25;;
19919;SDS011;10122;50.074;19.920;2024-02-14T04:54:27;44.80;;;21.67;;
19919;SDS011;10122;50.074;19.920;2024-02-14T04:56:53;37.65;;;20.73;;
19919;SDS011;10122;50.074;19.920;2024-02-14T04:59:19;43.42;;;22.40;;
19919;SDS011;10122;50.074;19.920;2024-02-14T05:01:45;46.05;;;22.95;;
19919;SDS011;10122;50.074;19.920;2024-02-14T05:04:11;38.15;;;20.92;;
19919;SDS011;10122;50.074;19.920;2024-02-14T05:06:38;58.35;;;22.73;;
19919;SDS011;10122;50.074;19.920;2024-02-14T05:09:04;47.00;;;22.50;;
19919;SDS011;10122;50.074;19.920;2024-02-14T05:11:30;48.25;;;22.45;;
19919;SDS011;10122;50.074;19.920;2024-02-14T05:13:56;52.15;;;23.40;;
19919;SDS011;10122;50.074;19.920;2024-02-14T05:16:21;54.20;;;22.73;;
19919;SDS011;10122;50.074;19.920;2024-02-14T05:18:48;48.65;;;23.58;;
19919;SDS011;10122;50.074;19.920;2024-02-14T05:21:14;46.58;;;21.90;;
19919;SDS011;10122;50.074;19.920;2024-02-14T05:23:40;48.05;;;23.00;;
19919;SDS011;10122;50.074;19.920;2024-02-14T05:26:05;49.28;;;22.88;;
19919;SDS011;10122;50.074;19.920;2024-02-14T05:28:31;47.47;;;23.25;;
19919;SDS011;10122;50.074;19.920;2024-02-14T05:30:58;51.88;;;23.75;;
19919;SDS011;10122;50.074;19.920;2024-02-14T05:33:25;49.80;;;22.67;;
19919;SDS011;10122;50.074;19.920;2024-02-14T05:35:51;50.03;;;22.70;;
19919;SDS011;10122;50.074;19.920;2024-02-14T05:38:17;52.03;;;22.65;;
19919;SDS011;10122;50.074;19.920;2024-02-14T05:40:47;54.50;;;25.08;;
19919;SDS011;10122;50.074;19.920;2024-02-14T05:43:13;49.08;;;23.30;;
19919;SDS011;10122;50.074;19.920;2024-02-14T05:45:39;48.03;;;23.90;;
19919;SDS011;10122;50.074;19.920;2024-02-14T05:48:06;46.47;;;23.05;;
19919;SDS011;10122;50.074;19.920;2024-02-14T05:50:32;47.83;;;22.58;;
19919;SDS011;10122;50.074;19.920;2024-02-14T05:52:58;52.42;;;24.25;;
19919;SDS011;10122;50.074;19.920;2024-02-14T05:55:24;53.00;;;22.98;;
19919;SDS011;10122;50.074;19.920;2024-02-14T05:57:51;55.17;;;24.17;;
19919;SDS011;10122;50.074;19.920;2024-02-14T06:00:19;60.45;;;25.20;;
19919;SDS011;10122;50.074;19.920;2024-02-14T06:02:49;59.60;;;24.90;;
19919;SDS011;10122;50.074;19.920;2024-02-14T06:05:15;55.92;;;26.33;;
19919;SDS011;10122;50.074;19.920;2024-02-14T06:07:41;58.22;;;25.35;;
19919;SDS011;10122;50.074;19.920;2024-02-14T06:10:07;54.47;;;24.83;;
19919;SDS011;10122;50.074;19.920;2024-02-14T06:12:34;53.28;;;24.77;;
19919;SDS011;10122;50.074;19.920;2024-02-14T06:15:00;47.38;;;24.00;;
19919;SDS011;10122;50.074;19.920;2024-02-14T06:17:26;55.60;;;24.45;;
19919;SDS011;10122;50.074;19.920;2024-02-14T06:19:52;56.58;;;24.70;;
19919;SDS011;10122;50.074;19.920;2024-02-14T06:22:18;51.50;;;24.90;;
19919;SDS011;10122;50.074;19.920;2024-02-14T06:24:45;55.67;;;25.13;;
19919;SDS011;10122;50.074;19.920;2024-02-14T06:27:13;53.38;;;24.75;;
19919;SDS011;10122;50.074;19.920;2024-02-14T06:29:41;47.10;;;23.00;;
19919;SDS011;10122;50.074;19.920;2024-02-14T06:32:07;52.42;;;22.85;;
19919;SDS011;10122;50.074;19.920;2024-02-14T06:34:33;52.92;;;23.70;;
19919;SDS011;10122;50.074;19.920;2024-02-14T06:36:59;48.85;;;23.30;;
19919;SDS011;10122;50.074;19.920;2024-02-14T06:39:24;50.08;;;24.60;;
19919;SDS011;10122;50.074;19.920;2024-02-14T06:41:50;49.20;;;23.33;;
19919;SDS011;10122;50.074;19.920;2024-02-14T06:44:16;47.83;;;23.23;;
19919;SDS011;10122;50.074;19.920;2024-02-14T06:46:41;47.80;;;24.90;;
19919;SDS011;10122;50.074;19.920;2024-02-14T06:49:07;54.72;;;23.90;;
19919;SDS011;10122;50.074;19.920;2024-02-14T06:51:34;57.88;;;24.80;;
19919;SDS011;10122;50.074;19.920;2024-02-14T06:53:59;49.28;;;23.40;;
19919;SDS011;10122;50.074;19.920;2024-02-14T06:56:25;50.50;;;24.80;;
19919;SDS011;10122;50.074;19.920;2024-02-14T06:58:51;45.38;;;23.23;;
19919;SDS011;10122;50.074;19.920;2024-02-14T07:01:19;55.38;;;24.90;;
19919;SDS011;10122;50.074;19.920;2024-02-14T07:03:48;56.83;;;24.88;;
19919;SDS011;10122;50.074;19.920;2024-02-14T07:06:14;57.00;;;25.63;;
19919;SDS011;10122;50.074;19.920;2024-02-14T07:08:40;50.90;;;24.73;;
19919;SDS011;10122;50.074;19.920;2024-02-14T07:11:06;48.17;;;25.10;;
19919;SDS011;10122;50.074;19.920;2024-02-14T07:13:32;56.83;;;24.80;;
19919;SDS011;10122;50.074;19.920;2024-02-14T07:15:58;57.08;;;25.58;;
19919;SDS011;10122;50.074;19.920;2024-02-14T07:18:23;48.95;;;22.98;;
19919;SDS011;10122;50.074;19.920;2024-02-14T07:20:49;47.38;;;23.42;;
19919;SDS011;10122;50.074;19.920;2024-02-14T07:23:15;47.30;;;23.38;;
19919;SDS011;10122;50.074;19.920;2024-02-14T07:25:42;48.50;;;23.33;;
19919;SDS011;10122;50.074;19.920;2024-02-14T07:28:08;47.60;;;23.27;;
19919;SDS011;10122;50.074;19.920;2024-02-14T07:30:34;47.13;;;23.48;;
19919;SDS011;10122;50.074;19.920;2024-02-14T07:33:00;54.85;;;23.33;;
19919;SDS011;10122;50.074;19.920;2024-02-14T07:35:26;45.97;;;22.30;;
19919;SDS011;10122;50.074;19.920;2024-02-14T07:37:52;47.08;;;23.02;;
19919;SDS011;10122;50.074;19.920;2024-02-14T07:40:18;43.15;;;21.25;;
19919;SDS011;10122;50.074;19.920;2024-02-14T07:42:44;53.47;;;22.95;;
19919;SDS011;10122;50.074;19.920;2024-02-14T07:45:09;59.90;;;23.50;;
19919;SDS011;10122;50.074;19.920;2024-02-14T07:47:35;48.42;;;22.58;;
19919;SDS011;10122;50.074;19.920;2024-02-14T07:50:01;52.22;;;24.48;;
19919;SDS011;10122;50.074;19.920;2024-02-14T07:52:27;48.92;;;24.45;;
19919;SDS011;10122;50.074;19.920;2024-02-14T07:54:53;42.72;;;22.05;;
19919;SDS011;10122;50.074;19.920;2024-02-14T07:57:20;41.38;;;21.58;;
19919;SDS011;10122;50.074;19.920;2024-02-14T07:59:50;45.33;;;20.83;;
19919;SDS011;10122;50.074;19.920;2024-02-14T08:02:19;42.00;;;21.20;;
19919;SDS011;10122;50.074;19.920;2024-02-14T08:04:45;38.10;;;20.70;;
19919;SDS011;10122;50.074;19.920;2024-02-14T08:07:11;38.42;;;20.38;;
19919;SDS011;10122;50.074;19.920;2024-02-14T08:09:37;34.08;;;17.73;;
19919;SDS011;10122;50.074;19.920;2024-02-14T08:12:04;36.53;;;18.67;;
19919;SDS011;10122;50.074;19.920;2024-02-14T08:14:30;33.63;;;18.10;;
19919;SDS011;10122;50.074;19.920;2024-02-14T08:16:56;30.00;;;18.73;;
19919;SDS011;10122;50.074;19.920;2024-02-14T08:19:22;30.23;;;17.70;;
19919;SDS011;10122;50.074;19.920;2024-02-14T08:21:48;35.58;;;18.08;;
19919;SDS011;10122;50.074;19.920;2024-02-14T08:24:13;28.80;;;17.15;;
19919;SDS011;10122;50.074;19.920;2024-02-14T08:26:39;29.33;;;17.10;;
19919;SDS011;10122;50.074;19.920;2024-02-14T08:29:05;26.85;;;16.25;;
19919;SDS011;10122;50.074;19.920;2024-02-14T08:31:30;28.92;;;16.00;;
19919;SDS011;10122;50.074;19.920;2024-02-14T08:33:57;29.83;;;16.90;;
19919;SDS011;10122;50.074;19.920;2024-02-14T08:36:23;32.63;;;17.42;;
19919;SDS011;10122;50.074;19.920;2024-02-14T08:38:50;30.48;;;16.52;;
19919;SDS011;10122;50.074;19.920;2024-02-14T08:41:15;29.63;;;17.45;;
19919;SDS011;10122;50.074;19.920;2024-02-14T08:43:43;26.55;;;17.27;;
19919;SDS011;10122;50.074;19.920;2024-02-14T08:46:12;27.02;;;16.92;;
19919;SDS011;10122;50.074;19.920;2024-02-14T08:48:37;23.88;;;15.55;;
19919;SDS011;10122;50.074;19.920;2024-02-14T08:51:11;26.50;;;16.30;;
19919;SDS011;10122;50.074;19.920;2024-02-14T08:53:38;27.17;;;17.17;;
19919;SDS011;10122;50.074;19.920;2024-02-14T08:56:04;23.80;;;16.23;;
19919;SDS011;10122;50.074;19.920;2024-02-14T08:58:30;28.70;;;18.77;;
19919;SDS011;10122;50.074;19.920;2024-02-14T09:00:55;29.10;;;18.20;;
19919;SDS011;10122;50.074;19.920;2024-02-14T09:03:21;29.27;;;17.95;;
19919;SDS011;10122;50.074;19.920;2024-02-14T09:05:48;26.25;;;17.23;;
19919;SDS011;10122;50.074;19.920;2024-02-14T09:08:14;28.08;;;16.63;;
19919;SDS011;10122;50.074;19.920;2024-02-14T09:10:39;24.98;;;16.10;;
19919;SDS011;10122;50.074;19.920;2024-02-14T09:13:05;23.02;;;16.00;;
19919;SDS011;10122;50.074;19.920;2024-02-14T09:15:32;19.23;;;13.60;;
19919;SDS011;10122;50.074;19.920;2024-02-14T09:17:58;15.57;;;12.32;;
19919;SDS011;10122;50.074;19.920;2024-02-14T09:20:25;12.80;;;11.00;;
19919;SDS011;10122;50.074;19.920;2024-02-14T09:22:51;13.70;;;11.75;;
19919;SDS011;10122;50.074;19.920;2024-02-14T09:25:18;16.20;;;12.80;;
19919;SDS011;10122;50.074;19.920;2024-02-14T09:27:44;18.23;;;12.48;;
19919;SDS011;10122;50.074;19.920;2024-02-14T09:30:12;15.02;;;10.75;;
19919;SDS011;10122;50.074;19.920;2024-02-14T09:32:38;11.57;;;10.45;;
19919;SDS011;10122;50.074;19.920;2024-02-14T09:35:04;11.43;;;10.32;;
19919;SDS011;10122;50.074;19.920;2024-02-14T09:37:32;11.07;;;9.80;;
19919;SDS011;10122;50.074;19.920;2024-02-14T09:39:57;10.60;;;9.45;;
19919;SDS011;10122;50.074;19.920;2024-02-14T09:42:47;9.63;;;8.80;;
19919;SDS011;10122;50.074;19.920;2024-02-14T09:45:12;9.90;;;9.00;;
19919;SDS011;10122;50.074;19.920;2024-02-14T09:47:39;10.20;;;9.30;;
19919;SDS011;10122;50.074;19.920;2024-02-14T09:50:07;10.43;;;9.43;;
19919;SDS011;10122;50.074;19.920;2024-02-14T09:52:34;10.77;;;9.68;;
19919;SDS011;10122;50.074;19.920;2024-02-14T09:55:03;10.55;;;9.70;;
19919;SDS011;10122;50.074;19.920;2024-02-14T09:57:30;11.27;;;10.15;;
19919;SDS011;10122;50.074;19.920;2024-02-14T09:59:57;10.38;;;9.50;;
19919;SDS011;10122;50.074;19.920;2024-02-14T10:02:25;11.52;;;10.35;;
19919;SDS011;10122;50.074;19.920;2024-02-14T10:04:50;10.45;;;9.57;;
19919;SDS011;10122;50.074;19.920;2024-02-14T10:07:16;11.07;;;10.18;;
19919;SDS011;10122;50.074;19.920;2024-02-14T10:09:42;11.65;;;10.55;;
19919;SDS011;10122;50.074;19.920;2024-02-14T10:12:08;11.48;;;10.40;;
19919;SDS011;10122;50.074;19.920;2024-02-14T10:14:35;12.15;;;10.15;;
19919;SDS011;10122;50.074;19.920;2024-02-14T10:17:03;11.65;;;10.60;;
19919;SDS011;10122;50.074;19.920;2024-02-14T10:19:29;11.57;;;10.48;;
19919;SDS011;10122;50.074;19.920;2024-02-14T10:21:56;11.20;;;10.20;;
19919;SDS011;10122;50.074;19.920;2024-02-14T10:24:29;11.30;;;10.30;;
19919;SDS011;10122;50.074;19.920;2024-02-14T10:26:56;12.48;;;10.60;;
19919;SDS011;10122;50.074;19.920;2024-02-14T10:29:25;11.05;;;10.15;;
19919;SDS011;10122;50.074;19.920;2024-02-14T10:31:52;11.15;;;10.25;;
19919;SDS011;10122;50.074;19.920;2024-02-14T10:34:24;10.98;;;10.07;;
19919;SDS011;10122;50.074;19.920;2024-02-14T10:36:52;11.23;;;9.98;;
19919;SDS011;10122;50.074;19.920;2024-02-14T10:39:21;10.75;;;9.85;;
19919;SDS011;10122;50.074;19.920;2024-02-14T10:41:47;11.35;;;10.30;;
19919;SDS011;10122;50.074;19.920;2024-02-14T10:44:15;11.73;;;10.38;;
19919;SDS011;10122;50.074;19.920;2024-02-14T10:46:41;11.85;;;10.77;;
19919;SDS011;10122;50.074;19.920;2024-02-14T10:49:09;11.30;;;10.35;;
19919;SDS011;10122;50.074;19.920;2024-02-14T10:51:36;10.95;;;10.00;;
19919;SDS011;10122;50.074;19.920;2024-02-14T10:54:10;11.40;;;10.40;;
19919;SDS011;10122;50.074;19.920;2024-02-14T10:56:45;11.73;;;10.70;;
19919;SDS011;10122;50.074;19.920;2024-02-14T10:59:17;11.63;;;10.40;;
19919;SDS011;10122;50.074;19.920;2024-02-14T11:01:45;11.05;;;10.15;;
19919;SDS011;10122;50.074;19.920;2024-02-14T11:04:12;11.77;;;10.77;;
19919;SDS011;10122;50.074;19.920;2024-02-14T11:06:45;11.10;;;10.07;;
19919;SDS011;10122;50.074;19.920;2024-02-14T11:09:17;10.98;;;9.93;;
19919;SDS011;10122;50.074;19.920;2024-02-14T11:11:44;11.63;;;10.52;;
19919;SDS011;10122;50.074;19.920;2024-02-14T11:14:10;12.07;;;10.73;;
19919;SDS011;10122;50.074;19.920;2024-02-14T11:16:40;10.98;;;9.98;;
19919;SDS011;10122;50.074;19.920;2024-02-14T11:19:11;10.80;;;9.90;;
19919;SDS011;10122;50.074;19.920;2024-02-14T11:21:41;10.95;;;10.02;;
19919;SDS011;10122;50.074;19.920;2024-02-14T11:24:09;10.82;;;9.93;;
19919;SDS011;10122;50.074;19.920;2024-02-14T11:26:55;10.40;;;9.60;;
19919;SDS011;10122;50.074;19.920;2024-02-14T11:29:28;10.82;;;9.82;;
19919;SDS011;10122;50.074;19.920;2024-02-14T11:31:58;11.05;;;10.05;;
19919;SDS011;10122;50.074;19.920;2024-02-14T11:34:25;10.55;;;9.65;;
19919;SDS011;10122;50.074;19.920;2024-02-14T11:36:52;10.73;;;9.80;;
19919;SDS011;10122;50.074;19.920;2024-02-14T11:39:17;11.02;;;9.93;;
19919;SDS011;10122;50.074;19.920;2024-02-14T11:41:43;11.00;;;9.95;;
19919;SDS011;10122;50.074;19.920;2024-02-14T11:44:09;10.73;;;9.90;;
19919;SDS011;10122;50.074;19.920;2024-02-14T11:46:35;10.63;;;9.63;;
19919;SDS011;10122;50.074;19.920;2024-02-14T11:49:03;11.15;;;10.05;;
19919;SDS011;10122;50.074;19.920;2024-02-14T11:51:30;10.20;;;9.30;;
19919;SDS011;10122;50.074;19.920;2024-02-14T11:53:57;11.38;;;9.88;;
19919;SDS011;10122;50.074;19.920;2024-02-14T11:56:39;11.30;;;10.30;;
19919;SDS011;10122;50.074;19.920;2024-02-14T11:59:06;10.90;;;9.90;;
19919;SDS011;10122;50.074;19.920;2024-02-14T12:01:36;11.27;;;9.95;;
19919;SDS011;10122;50.074;19.920;2024-02-14T12:04:05;10.43;;;9.60;;
19919;SDS011;10122;50.074;19.920;2024-02-14T12:06:33;10.45;;;9.65;;
19919;SDS011;10122;50.074;19.920;2024-02-14T12:09:00;10.40;;;9.60;;
19919;SDS011;10122;50.074;19.920;2024-02-14T12:11:33;10.20;;;9.40;;
19919;SDS011;10122;50.074;19.920;2024-02-14T12:14:05;10.40;;;9.50;;
19919;SDS011;10122;50.074;19.920;2024-02-14T12:16:31;10.68;;;9.57;;
19919;SDS011;10122;50.074;19.920;2024-02-14T12:19:04;10.32;;;9.43;;
19919;SDS011;10122;50.074;19.920;2024-02-14T12:21:36;10.43;;;9.57;;
19919;SDS011;10122;50.074;19.920;2024-02-14T12:24:04;10.25;;;9.35;;
19919;SDS011;10122;50.074;19.920;2024-02-14T12:26:30;10.57;;;9.68;;
19919;SDS011;10122;50.074;19.920;2024-02-14T12:28:57;10.55;;;9.60;;
19919;SDS011;10122;50.074;19.920;2024-02-14T12:31:23;10.75;;;9.75;;
19919;SDS011;10122;50.074;19.920;2024-02-14T12:33:49;10.43;;;9.63;;
19919;SDS011;10122;50.074;19.920;2024-02-14T12:36:18;11.40;;;10.30;;
19919;SDS011;10122;50.074;19.920;2024-02-14T12:38:44;10.80;;;9.93;;
19919;SDS011;10122;50.074;19.920;2024-02-14T12:41:10;11.18;;;10.27;;
19919;SDS011;10122;50.074;19.920;2024-02-14T12:43:36;10.82;;;9.80;;
19919;SDS011;10122;50.074;19.920;2024-02-14T12:46:01;11.18;;;10.00;;
19919;SDS011;10122;50.074;19.920;2024-02-14T12:48:29;10.57;;;9.68;;
19919;SDS011;10122;50.074;19.920;2024-02-14T12:50:55;10.85;;;9.98;;
19919;SDS011;10122;50.074;19.920;2024-02-14T12:53:21;11.40;;;10.30;;
19919;SDS011;10122;50.074;19.920;2024-02-14T12:55:48;11.32;;;10.40;;
19919;SDS011;10122;50.074;19.920;2024-02-14T12:58:13;11.70;;;10.50;;
19919;SDS011;10122;50.074;19.920;2024-02-14T13:00:40;11.65;;;10.57;;
19919;SDS011;10122;50.074;19.920;2024-02-14T13:03:07;11.05;;;10.13;;
19919;SDS011;10122;50.074;19.920;2024-02-14T13:05:35;11.27;;;10.23;;
19919;SDS011;10122;50.074;19.920;2024-02-14T13:08:01;11.00;;;10.00;;
19919;SDS011;10122;50.074;19.920;2024-02-14T13:10:28;12.20;;;10.80;;
19919;SDS011;10122;50.074;19.920;2024-02-14T13:12:56;11.80;;;10.23;;
19919;SDS011;10122;50.074;19.920;2024-02-14T13:15:22;10.90;;;9.82;;
19919;SDS011;10122;50.074;19.920;2024-02-14T13:17:48;11.35;;;10.45;;
19919;SDS011;10122;50.074;19.920;2024-02-14T13:20:14;11.65;;;10.50;;
19919;SDS011;10122;50.074;19.920;2024-02-14T13:22:43;11.00;;;10.05;;
19919;SDS011;10122;50.074;19.920;2024-02-14T13:25:08;11.25;;;10.25;;
19919;SDS011;10122;50.074;19.920;2024-02-14T13:27:35;11.60;;;10.40;;
19919;SDS011;10122;50.074;19.920;2024-02-14T13:30:01;11.50;;;10.60;;
19919;SDS011;10122;50.074;19.920;2024-02-14T13:32:27;10.98;;;10.07;;
19919;SDS011;10122;50.074;19.920;2024-02-14T13:34:53;10.55;;;9.63;;
19919;SDS011;10122;50.074;19.920;2024-02-14T13:37:19;10.63;;;9.70;;
19919;SDS011;10122;50.074;19.920;2024-02-14T13:39:45;11.05;;;9.77;;
19919;SDS011;10122;50.074;19.920;2024-02-14T13:42:10;11.20;;;10.20;;
19919;SDS011;10122;50.074;19.920;2024-02-14T13:44:36;11.20;;;10.10;;
19919;SDS011;10122;50.074;19.920;2024-02-14T13:47:02;10.90;;;10.00;;
19919;SDS011;10122;50.074;19.920;2024-02-14T13:49:28;11.15;;;10.15;;
19919;SDS011;10122;50.074;19.920;2024-02-14T13:51:53;11.15;;;10.25;;
19919;SDS011;10122;50.074;19.920;2024-02-14T13:54:19;11.77;;;10.38;;
19919;SDS011;10122;50.074;19.920;2024-02-14T13:56:46;11.82;;;10.68;;
19919;SDS011;10122;50.074;19.920;2024-02-14T13:59:15;10.85;;;9.77;;
19919;SDS011;10122;50.074;19.920;2024-02-14T14:01:41;11.57;;;10.57;;
19919;SDS011;10122;50.074;19.920;2024-02-14T14:04:08;11.77;;;10.75;;
19919;SDS011;10122;50.074;19.920;2024-02-14T14:06:33;11.70;;;10.70;;
19919;SDS011;10122;50.074;19.920;2024-02-14T14:08:59;11.48;;;10.50;;